sensor_id;sensor_type;location;lat;lon;timestamp;P1;durP1;ratioP1;P2;durP2;ratioP2
16813;SDS011;8524;57.650;11.926;2022-10-31T00:01:40;44.97;;;25.73;;
16813;SDS011;8524;57.650;11.926;2022-10-31T00:04:07;38.10;;;25.83;;
16813;SDS011;8524;57.650;11.926;2022-10-31T00:06:33;37.50;;;25.20;;
16813;SDS011;8524;57.650;11.926;2022-10-31T00:09:02;39.33;;;24.97;;
16813;SDS011;8524;57.650;11.926;2022-10-31T00:11:30;37.13;;;24.17;;
16813;SDS011;8524;57.650;11.926;2022-10-31T00:13:57;41.73;;;26.57;;
16813;SDS011;8524;57.650;11.926;2022-10-31T00:16:25;36.67;;;23.47;;
16813;SDS011;8524;57.650;11.926;2022-10-31T00:18:53;43.47;;;26.83;;
16813;SDS011;8524;57.650;11.926;2022-10-31T00:21:20;33.43;;;23.80;;
16813;SDS011;8524;57.650;11.926;2022-10-31T00:23:48;37.57;;;23.37;;
16813;SDS011;8524;57.650;11.926;2022-10-31T00:26:17;37.33;;;23.50;;
16813;SDS011;8524;57.650;11.926;2022-10-31T00:28:44;38.77;;;24.87;;
16813;SDS011;8524;57.650;11.926;2022-10-31T00:31:12;33.90;;;22.20;;
16813;SDS011;8524;57.650;11.926;2022-10-31T00:33:40;38.13;;;22.97;;
16813;SDS011;8524;57.650;11.926;2022-10-31T00:36:08;39.33;;;25.97;;
16813;SDS011;8524;57.650;11.926;2022-10-31T00:38:37;37.43;;;24.00;;
16813;SDS011;8524;57.650;11.926;2022-10-31T00:41:04;30.60;;;22.20;;
16813;SDS011;8524;57.650;11.926;2022-10-31T00:43:33;37.00;;;23.93;;
16813;SDS011;8524;57.650;11.926;2022-10-31T00:45:59;38.97;;;24.40;;
16813;SDS011;8524;57.650;11.926;2022-10-31T00:48:26;40.33;;;25.40;;
16813;SDS011;8524;57.650;11.926;2022-10-31T00:50:53;41.17;;;24.93;;
16813;SDS011;8524;57.650;11.926;2022-10-31T00:53:21;46.90;;;27.97;;
16813;SDS011;8524;57.650;11.926;2022-10-31T00:55:47;39.90;;;26.17;;
16813;SDS011;8524;57.650;11.926;2022-10-31T00:58:14;33.37;;;23.47;;
16813;SDS011;8524;57.650;11.926;2022-10-31T01:00:43;39.10;;;24.77;;
16813;SDS011;8524;57.650;11.926;2022-10-31T01:03:10;36.63;;;24.13;;
16813;SDS011;8524;57.650;11.926;2022-10-31T01:05:36;35.73;;;24.17;;
16813;SDS011;8524;57.650;11.926;2022-10-31T01:08:03;53.53;;;27.93;;
16813;SDS011;8524;57.650;11.926;2022-10-31T01:10:30;35.80;;;22.47;;
16813;SDS011;8524;57.650;11.926;2022-10-31T01:12:57;45.60;;;27.70;;
16813;SDS011;8524;57.650;11.926;2022-10-31T01:15:24;39.07;;;26.60;;
16813;SDS011;8524;57.650;11.926;2022-10-31T01:17:52;51.50;;;31.00;;
16813;SDS011;8524;57.650;11.926;2022-10-31T01:20:19;34.53;;;24.70;;
16813;SDS011;8524;57.650;11.926;2022-10-31T01:22:46;40.47;;;24.40;;
16813;SDS011;8524;57.650;11.926;2022-10-31T01:25:13;37.43;;;24.57;;
16813;SDS011;8524;57.650;11.926;2022-10-31T01:27:40;41.27;;;25.77;;
16813;SDS011;8524;57.650;11.926;2022-10-31T01:30:07;41.57;;;26.93;;
16813;SDS011;8524;57.650;11.926;2022-10-31T01:32:34;35.87;;;24.77;;
16813;SDS011;8524;57.650;11.926;2022-10-31T01:35:03;41.20;;;26.87;;
16813;SDS011;8524;57.650;11.926;2022-10-31T01:37:30;39.33;;;24.80;;
16813;SDS011;8524;57.650;11.926;2022-10-31T01:39:57;38.67;;;24.80;;
16813;SDS011;8524;57.650;11.926;2022-10-31T01:42:24;37.80;;;24.53;;
16813;SDS011;8524;57.650;11.926;2022-10-31T01:44:55;39.43;;;25.67;;
16813;SDS011;8524;57.650;11.926;2022-10-31T01:47:27;41.67;;;25.13;;
16813;SDS011;8524;57.650;11.926;2022-10-31T01:50:06;42.83;;;26.20;;
16813;SDS011;8524;57.650;11.926;2022-10-31T01:52:40;41.33;;;26.90;;
16813;SDS011;8524;57.650;11.926;2022-10-31T01:55:11;38.20;;;25.93;;
16813;SDS011;8524;57.650;11.926;2022-10-31T01:57:42;36.37;;;25.20;;
16813;SDS011;8524;57.650;11.926;2022-10-31T02:00:13;43.67;;;26.60;;
16813;SDS011;8524;57.650;11.926;2022-10-31T02:02:40;41.90;;;26.40;;
16813;SDS011;8524;57.650;11.926;2022-10-31T02:05:11;45.23;;;27.80;;
16813;SDS011;8524;57.650;11.926;2022-10-31T02:07:42;43.00;;;27.87;;
16813;SDS011;8524;57.650;11.926;2022-10-31T02:10:13;46.73;;;28.90;;
16813;SDS011;8524;57.650;11.926;2022-10-31T02:12:41;43.93;;;29.23;;
16813;SDS011;8524;57.650;11.926;2022-10-31T02:15:09;48.60;;;30.20;;
16813;SDS011;8524;57.650;11.926;2022-10-31T02:17:36;37.73;;;26.30;;
16813;SDS011;8524;57.650;11.926;2022-10-31T02:20:05;54.77;;;32.03;;
16813;SDS011;8524;57.650;11.926;2022-10-31T02:22:40;47.47;;;29.87;;
16813;SDS011;8524;57.650;11.926;2022-10-31T02:25:29;49.20;;;28.97;;
16813;SDS011;8524;57.650;11.926;2022-10-31T02:28:16;44.63;;;27.27;;
16813;SDS011;8524;57.650;11.926;2022-10-31T02:30:59;43.77;;;26.13;;
16813;SDS011;8524;57.650;11.926;2022-10-31T02:33:32;53.20;;;33.43;;
16813;SDS011;8524;57.650;11.926;2022-10-31T02:36:09;46.87;;;28.50;;
16813;SDS011;8524;57.650;11.926;2022-10-31T02:38:45;41.47;;;26.37;;
16813;SDS011;8524;57.650;11.926;2022-10-31T02:41:19;45.23;;;26.80;;
16813;SDS011;8524;57.650;11.926;2022-10-31T02:43:54;47.50;;;28.77;;
16813;SDS011;8524;57.650;11.926;2022-10-31T02:46:32;41.60;;;27.23;;
16813;SDS011;8524;57.650;11.926;2022-10-31T02:49:03;41.27;;;26.27;;
16813;SDS011;8524;57.650;11.926;2022-10-31T02:51:36;40.87;;;26.63;;
16813;SDS011;8524;57.650;11.926;2022-10-31T02:54:04;47.87;;;28.67;;
16813;SDS011;8524;57.650;11.926;2022-10-31T02:56:31;47.77;;;29.80;;
16813;SDS011;8524;57.650;11.926;2022-10-31T02:58:59;48.37;;;30.43;;
16813;SDS011;8524;57.650;11.926;2022-10-31T03:01:41;44.63;;;27.97;;
16813;SDS011;8524;57.650;11.926;2022-10-31T03:04:26;41.13;;;26.90;;
16813;SDS011;8524;57.650;11.926;2022-10-31T03:07:07;39.03;;;25.03;;
16813;SDS011;8524;57.650;11.926;2022-10-31T03:09:40;34.77;;;23.60;;
16813;SDS011;8524;57.650;11.926;2022-10-31T03:12:16;46.33;;;28.50;;
16813;SDS011;8524;57.650;11.926;2022-10-31T03:14:52;44.20;;;25.80;;
16813;SDS011;8524;57.650;11.926;2022-10-31T03:17:25;45.50;;;27.73;;
16813;SDS011;8524;57.650;11.926;2022-10-31T03:19:55;37.53;;;26.37;;
16813;SDS011;8524;57.650;11.926;2022-10-31T03:22:27;36.00;;;24.37;;
16813;SDS011;8524;57.650;11.926;2022-10-31T03:24:58;38.83;;;24.57;;
16813;SDS011;8524;57.650;11.926;2022-10-31T03:27:28;48.53;;;28.47;;
16813;SDS011;8524;57.650;11.926;2022-10-31T03:30:03;49.10;;;28.93;;
16813;SDS011;8524;57.650;11.926;2022-10-31T03:32:35;46.20;;;27.93;;
16813;SDS011;8524;57.650;11.926;2022-10-31T03:35:06;46.00;;;27.73;;
16813;SDS011;8524;57.650;11.926;2022-10-31T03:37:36;49.80;;;29.50;;
16813;SDS011;8524;57.650;11.926;2022-10-31T03:40:05;42.93;;;27.43;;
16813;SDS011;8524;57.650;11.926;2022-10-31T03:42:36;45.00;;;28.50;;
16813;SDS011;8524;57.650;11.926;2022-10-31T03:45:07;48.30;;;28.90;;
16813;SDS011;8524;57.650;11.926;2022-10-31T03:47:40;43.70;;;27.57;;
16813;SDS011;8524;57.650;11.926;2022-10-31T03:50:09;36.33;;;24.97;;
16813;SDS011;8524;57.650;11.926;2022-10-31T03:52:41;35.53;;;24.77;;
16813;SDS011;8524;57.650;11.926;2022-10-31T03:55:13;32.73;;;23.00;;
16813;SDS011;8524;57.650;11.926;2022-10-31T03:57:45;33.93;;;22.93;;
16813;SDS011;8524;57.650;11.926;2022-10-31T04:00:19;42.13;;;25.47;;
16813;SDS011;8524;57.650;11.926;2022-10-31T04:02:50;40.47;;;25.90;;
16813;SDS011;8524;57.650;11.926;2022-10-31T04:05:22;33.60;;;23.17;;
16813;SDS011;8524;57.650;11.926;2022-10-31T04:07:50;39.57;;;25.37;;
16813;SDS011;8524;57.650;11.926;2022-10-31T04:10:20;38.50;;;25.67;;
16813;SDS011;8524;57.650;11.926;2022-10-31T04:12:50;41.93;;;25.77;;
16813;SDS011;8524;57.650;11.926;2022-10-31T04:15:22;29.33;;;21.43;;
16813;SDS011;8524;57.650;11.926;2022-10-31T04:17:51;34.30;;;22.70;;
16813;SDS011;8524;57.650;11.926;2022-10-31T04:20:28;31.53;;;21.50;;
16813;SDS011;8524;57.650;11.926;2022-10-31T04:22:56;31.07;;;21.17;;
16813;SDS011;8524;57.650;11.926;2022-10-31T04:25:23;34.73;;;22.47;;
16813;SDS011;8524;57.650;11.926;2022-10-31T04:27:50;34.60;;;23.17;;
16813;SDS011;8524;57.650;11.926;2022-10-31T04:30:17;38.90;;;24.60;;
16813;SDS011;8524;57.650;11.926;2022-10-31T04:32:44;31.93;;;20.47;;
16813;SDS011;8524;57.650;11.926;2022-10-31T04:35:12;27.73;;;20.20;;
16813;SDS011;8524;57.650;11.926;2022-10-31T04:37:39;27.17;;;18.87;;
16813;SDS011;8524;57.650;11.926;2022-10-31T04:40:06;33.23;;;22.83;;
16813;SDS011;8524;57.650;11.926;2022-10-31T04:42:34;27.70;;;19.47;;
16813;SDS011;8524;57.650;11.926;2022-10-31T04:45:01;39.23;;;24.70;;
16813;SDS011;8524;57.650;11.926;2022-10-31T04:47:30;39.00;;;23.97;;
16813;SDS011;8524;57.650;11.926;2022-10-31T04:49:58;30.77;;;19.83;;
16813;SDS011;8524;57.650;11.926;2022-10-31T04:52:26;35.67;;;22.93;;
16813;SDS011;8524;57.650;11.926;2022-10-31T04:54:53;41.20;;;26.17;;
16813;SDS011;8524;57.650;11.926;2022-10-31T04:57:20;32.70;;;21.77;;
16813;SDS011;8524;57.650;11.926;2022-10-31T04:59:47;38.50;;;25.87;;
16813;SDS011;8524;57.650;11.926;2022-10-31T05:02:14;31.30;;;22.07;;
16813;SDS011;8524;57.650;11.926;2022-10-31T05:04:41;28.20;;;20.63;;
16813;SDS011;8524;57.650;11.926;2022-10-31T05:07:07;41.50;;;24.57;;
16813;SDS011;8524;57.650;11.926;2022-10-31T05:09:36;31.07;;;20.67;;
16813;SDS011;8524;57.650;11.926;2022-10-31T05:12:03;42.90;;;25.87;;
16813;SDS011;8524;57.650;11.926;2022-10-31T05:14:30;34.53;;;22.20;;
16813;SDS011;8524;57.650;11.926;2022-10-31T05:16:57;39.53;;;26.10;;
16813;SDS011;8524;57.650;11.926;2022-10-31T05:19:23;41.37;;;26.77;;
16813;SDS011;8524;57.650;11.926;2022-10-31T05:21:50;34.80;;;22.60;;
16813;SDS011;8524;57.650;11.926;2022-10-31T05:24:17;29.20;;;20.40;;
16813;SDS011;8524;57.650;11.926;2022-10-31T05:26:48;31.27;;;21.33;;
16813;SDS011;8524;57.650;11.926;2022-10-31T05:29:15;27.67;;;18.60;;
16813;SDS011;8524;57.650;11.926;2022-10-31T05:31:42;32.43;;;22.53;;
16813;SDS011;8524;57.650;11.926;2022-10-31T05:34:09;29.60;;;19.40;;
16813;SDS011;8524;57.650;11.926;2022-10-31T05:36:36;29.03;;;17.93;;
16813;SDS011;8524;57.650;11.926;2022-10-31T05:39:03;27.80;;;19.03;;
16813;SDS011;8524;57.650;11.926;2022-10-31T05:41:30;32.80;;;20.07;;
16813;SDS011;8524;57.650;11.926;2022-10-31T05:43:58;35.27;;;20.20;;
16813;SDS011;8524;57.650;11.926;2022-10-31T05:46:25;28.13;;;18.67;;
16813;SDS011;8524;57.650;11.926;2022-10-31T05:48:52;24.13;;;17.47;;
16813;SDS011;8524;57.650;11.926;2022-10-31T05:51:19;25.47;;;18.03;;
16813;SDS011;8524;57.650;11.926;2022-10-31T05:53:46;26.30;;;17.83;;
16813;SDS011;8524;57.650;11.926;2022-10-31T05:56:13;27.50;;;18.33;;
16813;SDS011;8524;57.650;11.926;2022-10-31T05:58:40;28.30;;;17.90;;
16813;SDS011;8524;57.650;11.926;2022-10-31T06:01:08;23.53;;;16.20;;
16813;SDS011;8524;57.650;11.926;2022-10-31T06:03:35;24.77;;;16.60;;
16813;SDS011;8524;57.650;11.926;2022-10-31T06:06:02;20.90;;;14.50;;
16813;SDS011;8524;57.650;11.926;2022-10-31T06:08:29;21.57;;;15.00;;
16813;SDS011;8524;57.650;11.926;2022-10-31T06:10:56;23.80;;;14.70;;
16813;SDS011;8524;57.650;11.926;2022-10-31T06:13:23;20.57;;;14.17;;
16813;SDS011;8524;57.650;11.926;2022-10-31T06:15:50;17.33;;;13.80;;
16813;SDS011;8524;57.650;11.926;2022-10-31T06:18:18;21.70;;;15.43;;
16813;SDS011;8524;57.650;11.926;2022-10-31T06:20:45;23.30;;;15.60;;
16813;SDS011;8524;57.650;11.926;2022-10-31T06:23:12;21.10;;;14.63;;
16813;SDS011;8524;57.650;11.926;2022-10-31T06:25:38;25.33;;;16.97;;
16813;SDS011;8524;57.650;11.926;2022-10-31T06:28:05;18.93;;;13.73;;
16813;SDS011;8524;57.650;11.926;2022-10-31T06:30:32;21.50;;;14.20;;
16813;SDS011;8524;57.650;11.926;2022-10-31T06:33:02;17.23;;;12.90;;
16813;SDS011;8524;57.650;11.926;2022-10-31T06:35:32;18.60;;;13.77;;
16813;SDS011;8524;57.650;11.926;2022-10-31T06:37:59;26.97;;;16.20;;
16813;SDS011;8524;57.650;11.926;2022-10-31T06:40:25;23.50;;;15.20;;
16813;SDS011;8524;57.650;11.926;2022-10-31T06:42:56;24.80;;;15.70;;
16813;SDS011;8524;57.650;11.926;2022-10-31T06:45:23;18.00;;;13.80;;
16813;SDS011;8524;57.650;11.926;2022-10-31T06:47:50;24.17;;;15.17;;
16813;SDS011;8524;57.650;11.926;2022-10-31T06:50:18;30.70;;;18.77;;
16813;SDS011;8524;57.650;11.926;2022-10-31T06:52:50;25.30;;;16.00;;
16813;SDS011;8524;57.650;11.926;2022-10-31T06:55:17;26.60;;;17.20;;
16813;SDS011;8524;57.650;11.926;2022-10-31T06:57:49;27.77;;;18.33;;
16813;SDS011;8524;57.650;11.926;2022-10-31T07:00:16;29.37;;;17.50;;
16813;SDS011;8524;57.650;11.926;2022-10-31T07:02:43;25.47;;;16.53;;
16813;SDS011;8524;57.650;11.926;2022-10-31T07:05:10;25.97;;;16.40;;
16813;SDS011;8524;57.650;11.926;2022-10-31T07:07:37;26.37;;;17.80;;
16813;SDS011;8524;57.650;11.926;2022-10-31T07:10:05;20.10;;;14.30;;
16813;SDS011;8524;57.650;11.926;2022-10-31T07:12:32;29.80;;;17.83;;
16813;SDS011;8524;57.650;11.926;2022-10-31T07:14:59;20.37;;;14.77;;
16813;SDS011;8524;57.650;11.926;2022-10-31T07:17:26;23.00;;;16.10;;
16813;SDS011;8524;57.650;11.926;2022-10-31T07:19:53;30.20;;;17.40;;
16813;SDS011;8524;57.650;11.926;2022-10-31T07:22:19;24.47;;;14.50;;
16813;SDS011;8524;57.650;11.926;2022-10-31T07:24:46;25.77;;;15.63;;
16813;SDS011;8524;57.650;11.926;2022-10-31T07:27:15;27.47;;;17.20;;
16813;SDS011;8524;57.650;11.926;2022-10-31T07:29:41;26.43;;;17.67;;
16813;SDS011;8524;57.650;11.926;2022-10-31T07:32:08;27.57;;;17.80;;
16813;SDS011;8524;57.650;11.926;2022-10-31T07:34:35;26.63;;;16.90;;
16813;SDS011;8524;57.650;11.926;2022-10-31T07:37:02;22.90;;;15.40;;
16813;SDS011;8524;57.650;11.926;2022-10-31T07:39:29;27.00;;;16.97;;
16813;SDS011;8524;57.650;11.926;2022-10-31T07:41:57;23.17;;;15.70;;
16813;SDS011;8524;57.650;11.926;2022-10-31T07:44:26;22.07;;;14.30;;
16813;SDS011;8524;57.650;11.926;2022-10-31T07:46:52;27.13;;;16.47;;
16813;SDS011;8524;57.650;11.926;2022-10-31T07:49:19;19.43;;;14.63;;
16813;SDS011;8524;57.650;11.926;2022-10-31T07:51:46;20.20;;;13.53;;
16813;SDS011;8524;57.650;11.926;2022-10-31T07:54:13;20.10;;;13.90;;
16813;SDS011;8524;57.650;11.926;2022-10-31T07:56:40;17.97;;;13.40;;
16813;SDS011;8524;57.650;11.926;2022-10-31T07:59:07;19.47;;;11.97;;
16813;SDS011;8524;57.650;11.926;2022-10-31T08:01:35;20.27;;;14.63;;
16813;SDS011;8524;57.650;11.926;2022-10-31T08:04:02;19.63;;;13.73;;
16813;SDS011;8524;57.650;11.926;2022-10-31T08:06:29;17.03;;;13.47;;
16813;SDS011;8524;57.650;11.926;2022-10-31T08:08:55;14.87;;;12.03;;
16813;SDS011;8524;57.650;11.926;2022-10-31T08:11:22;13.77;;;11.97;;
16813;SDS011;8524;57.650;11.926;2022-10-31T08:13:49;16.30;;;12.17;;
16813;SDS011;8524;57.650;11.926;2022-10-31T08:16:16;14.50;;;11.90;;
16813;SDS011;8524;57.650;11.926;2022-10-31T08:18:44;16.60;;;12.90;;
16813;SDS011;8524;57.650;11.926;2022-10-31T08:21:12;17.87;;;12.97;;
16813;SDS011;8524;57.650;11.926;2022-10-31T08:23:39;17.13;;;13.10;;
16813;SDS011;8524;57.650;11.926;2022-10-31T08:26:06;15.77;;;12.30;;
16813;SDS011;8524;57.650;11.926;2022-10-31T08:28:33;16.90;;;12.50;;
16813;SDS011;8524;57.650;11.926;2022-10-31T08:30:59;17.40;;;12.60;;
16813;SDS011;8524;57.650;11.926;2022-10-31T08:33:26;17.47;;;12.67;;
16813;SDS011;8524;57.650;11.926;2022-10-31T08:35:54;15.87;;;11.87;;
16813;SDS011;8524;57.650;11.926;2022-10-31T08:38:23;16.57;;;12.07;;
16813;SDS011;8524;57.650;11.926;2022-10-31T08:40:50;18.93;;;14.57;;
16813;SDS011;8524;57.650;11.926;2022-10-31T08:43:17;16.30;;;12.33;;
16813;SDS011;8524;57.650;11.926;2022-10-31T08:45:47;18.40;;;13.50;;
16813;SDS011;8524;57.650;11.926;2022-10-31T08:48:15;13.33;;;10.87;;
16813;SDS011;8524;57.650;11.926;2022-10-31T08:50:43;16.13;;;11.37;;
16813;SDS011;8524;57.650;11.926;2022-10-31T08:53:13;15.77;;;12.50;;
16813;SDS011;8524;57.650;11.926;2022-10-31T08:55:41;13.27;;;11.60;;
16813;SDS011;8524;57.650;11.926;2022-10-31T08:58:10;13.37;;;10.30;;
16813;SDS011;8524;57.650;11.926;2022-10-31T09:00:38;15.63;;;11.03;;
16813;SDS011;8524;57.650;11.926;2022-10-31T09:03:12;18.67;;;12.33;;
16813;SDS011;8524;57.650;11.926;2022-10-31T09:05:40;14.17;;;11.80;;
16813;SDS011;8524;57.650;11.926;2022-10-31T09:08:07;16.57;;;12.40;;
16813;SDS011;8524;57.650;11.926;2022-10-31T09:10:35;15.80;;;11.63;;
16813;SDS011;8524;57.650;11.926;2022-10-31T09:13:03;15.47;;;11.50;;
16813;SDS011;8524;57.650;11.926;2022-10-31T09:15:32;15.07;;;11.23;;
16813;SDS011;8524;57.650;11.926;2022-10-31T09:18:00;17.10;;;11.80;;
16813;SDS011;8524;57.650;11.926;2022-10-31T09:20:27;13.23;;;10.37;;
16813;SDS011;8524;57.650;11.926;2022-10-31T09:22:57;15.27;;;11.63;;
16813;SDS011;8524;57.650;11.926;2022-10-31T09:25:25;16.37;;;11.03;;
16813;SDS011;8524;57.650;11.926;2022-10-31T09:27:56;11.03;;;9.83;;
16813;SDS011;8524;57.650;11.926;2022-10-31T09:30:23;13.57;;;10.47;;
16813;SDS011;8524;57.650;11.926;2022-10-31T09:32:54;15.20;;;11.13;;
16813;SDS011;8524;57.650;11.926;2022-10-31T09:35:21;12.87;;;9.37;;
16813;SDS011;8524;57.650;11.926;2022-10-31T09:37:53;10.63;;;8.37;;
16813;SDS011;8524;57.650;11.926;2022-10-31T09:40:20;13.50;;;10.03;;
16813;SDS011;8524;57.650;11.926;2022-10-31T09:42:51;19.70;;;12.37;;
16813;SDS011;8524;57.650;11.926;2022-10-31T09:45:31;16.60;;;10.93;;
16813;SDS011;8524;57.650;11.926;2022-10-31T09:48:11;16.70;;;10.77;;
16813;SDS011;8524;57.650;11.926;2022-10-31T09:50:48;16.53;;;11.03;;
16813;SDS011;8524;57.650;11.926;2022-10-31T09:53:21;17.70;;;11.70;;
16813;SDS011;8524;57.650;11.926;2022-10-31T09:55:51;15.23;;;10.60;;
16813;SDS011;8524;57.650;11.926;2022-10-31T09:58:23;12.03;;;10.00;;
16813;SDS011;8524;57.650;11.926;2022-10-31T10:00:51;12.87;;;9.07;;
16813;SDS011;8524;57.650;11.926;2022-10-31T10:03:26;14.00;;;9.97;;
16813;SDS011;8524;57.650;11.926;2022-10-31T10:06:00;15.43;;;10.27;;
16813;SDS011;8524;57.650;11.926;2022-10-31T10:08:32;16.20;;;10.90;;
16813;SDS011;8524;57.650;11.926;2022-10-31T10:11:03;15.57;;;10.23;;
16813;SDS011;8524;57.650;11.926;2022-10-31T10:13:44;11.73;;;9.40;;
16813;SDS011;8524;57.650;11.926;2022-10-31T10:16:25;13.03;;;9.47;;
16813;SDS011;8524;57.650;11.926;2022-10-31T10:19:06;13.40;;;8.73;;
16813;SDS011;8524;57.650;11.926;2022-10-31T10:21:44;12.23;;;8.37;;
16813;SDS011;8524;57.650;11.926;2022-10-31T10:24:26;16.00;;;10.23;;
16813;SDS011;8524;57.650;11.926;2022-10-31T10:27:14;11.60;;;8.50;;
16813;SDS011;8524;57.650;11.926;2022-10-31T10:29:49;14.43;;;9.70;;
16813;SDS011;8524;57.650;11.926;2022-10-31T10:32:21;11.60;;;9.00;;
16813;SDS011;8524;57.650;11.926;2022-10-31T10:34:50;10.43;;;8.30;;
16813;SDS011;8524;57.650;11.926;2022-10-31T10:37:22;10.47;;;8.63;;
16813;SDS011;8524;57.650;11.926;2022-10-31T10:39:54;13.13;;;8.63;;
16813;SDS011;8524;57.650;11.926;2022-10-31T10:42:24;11.50;;;8.47;;
16813;SDS011;8524;57.650;11.926;2022-10-31T10:45:15;11.07;;;7.60;;
16813;SDS011;8524;57.650;11.926;2022-10-31T10:48:04;11.97;;;8.50;;
16813;SDS011;8524;57.650;11.926;2022-10-31T10:50:37;12.83;;;8.10;;
16813;SDS011;8524;57.650;11.926;2022-10-31T10:53:18;9.07;;;7.00;;
16813;SDS011;8524;57.650;11.926;2022-10-31T10:56:08;14.73;;;8.07;;
16813;SDS011;8524;57.650;11.926;2022-10-31T10:58:41;12.63;;;7.70;;
16813;SDS011;8524;57.650;11.926;2022-10-31T11:01:12;9.33;;;7.00;;
16813;SDS011;8524;57.650;11.926;2022-10-31T11:03:40;11.63;;;6.50;;
16813;SDS011;8524;57.650;11.926;2022-10-31T11:06:16;7.70;;;6.20;;
16813;SDS011;8524;57.650;11.926;2022-10-31T11:08:50;10.20;;;6.27;;
16813;SDS011;8524;57.650;11.926;2022-10-31T11:11:25;10.27;;;6.40;;
16813;SDS011;8524;57.650;11.926;2022-10-31T11:13:56;9.80;;;6.00;;
16813;SDS011;8524;57.650;11.926;2022-10-31T11:16:31;8.93;;;5.87;;
16813;SDS011;8524;57.650;11.926;2022-10-31T11:19:06;7.83;;;6.00;;
16813;SDS011;8524;57.650;11.926;2022-10-31T11:21:40;10.03;;;5.50;;
16813;SDS011;8524;57.650;11.926;2022-10-31T11:24:11;12.93;;;6.23;;
16813;SDS011;8524;57.650;11.926;2022-10-31T11:26:41;8.93;;;5.47;;
16813;SDS011;8524;57.650;11.926;2022-10-31T11:29:12;8.03;;;4.90;;
16813;SDS011;8524;57.650;11.926;2022-10-31T11:31:43;6.40;;;4.60;;
16813;SDS011;8524;57.650;11.926;2022-10-31T11:34:13;8.63;;;5.37;;
16813;SDS011;8524;57.650;11.926;2022-10-31T11:36:52;10.17;;;4.60;;
16813;SDS011;8524;57.650;11.926;2022-10-31T11:39:20;7.93;;;5.17;;
16813;SDS011;8524;57.650;11.926;2022-10-31T11:41:50;8.27;;;5.20;;
16813;SDS011;8524;57.650;11.926;2022-10-31T11:44:20;9.27;;;5.53;;
16813;SDS011;8524;57.650;11.926;2022-10-31T11:46:52;6.90;;;4.17;;
16813;SDS011;8524;57.650;11.926;2022-10-31T11:49:23;9.03;;;4.67;;
16813;SDS011;8524;57.650;11.926;2022-10-31T11:51:55;7.00;;;4.20;;
16813;SDS011;8524;57.650;11.926;2022-10-31T11:54:25;10.00;;;5.10;;
16813;SDS011;8524;57.650;11.926;2022-10-31T11:56:54;8.90;;;4.00;;
16813;SDS011;8524;57.650;11.926;2022-10-31T11:59:23;9.30;;;4.47;;
16813;SDS011;8524;57.650;11.926;2022-10-31T12:01:54;6.30;;;3.57;;
16813;SDS011;8524;57.650;11.926;2022-10-31T12:04:26;5.53;;;3.30;;
16813;SDS011;8524;57.650;11.926;2022-10-31T12:07:01;7.30;;;3.80;;
16813;SDS011;8524;57.650;11.926;2022-10-31T12:09:29;6.20;;;3.30;;
16813;SDS011;8524;57.650;11.926;2022-10-31T12:15:18;5.43;;;3.00;;
16813;SDS011;8524;57.650;11.926;2022-10-31T12:17:58;5.20;;;3.50;;
16813;SDS011;8524;57.650;11.926;2022-10-31T12:20:44;5.23;;;2.60;;
16813;SDS011;8524;57.650;11.926;2022-10-31T12:23:22;6.43;;;3.17;;
16813;SDS011;8524;57.650;11.926;2022-10-31T12:25:56;6.60;;;3.20;;
16813;SDS011;8524;57.650;11.926;2022-10-31T12:31:41;5.10;;;3.20;;
16813;SDS011;8524;57.650;11.926;2022-10-31T12:34:25;6.10;;;3.10;;
16813;SDS011;8524;57.650;11.926;2022-10-31T12:37:09;5.03;;;2.90;;
16813;SDS011;8524;57.650;11.926;2022-10-31T12:39:44;7.57;;;3.20;;
16813;SDS011;8524;57.650;11.926;2022-10-31T12:42:19;7.80;;;3.13;;
16813;SDS011;8524;57.650;11.926;2022-10-31T12:45:05;5.97;;;3.03;;
16813;SDS011;8524;57.650;11.926;2022-10-31T12:47:59;5.10;;;2.73;;
16813;SDS011;8524;57.650;11.926;2022-10-31T12:50:41;6.80;;;3.03;;
16813;SDS011;8524;57.650;11.926;2022-10-31T12:53:19;6.33;;;3.30;;
16813;SDS011;8524;57.650;11.926;2022-10-31T12:55:56;7.53;;;3.10;;
16813;SDS011;8524;57.650;11.926;2022-10-31T12:58:32;5.60;;;3.53;;
16813;SDS011;8524;57.650;11.926;2022-10-31T13:01:06;7.70;;;4.10;;
16813;SDS011;8524;57.650;11.926;2022-10-31T13:03:40;10.83;;;4.20;;
16813;SDS011;8524;57.650;11.926;2022-10-31T13:06:15;5.27;;;3.80;;
16813;SDS011;8524;57.650;11.926;2022-10-31T13:08:45;5.10;;;3.10;;
16813;SDS011;8524;57.650;11.926;2022-10-31T13:11:16;6.40;;;3.77;;
16813;SDS011;8524;57.650;11.926;2022-10-31T13:13:49;7.80;;;4.20;;
16813;SDS011;8524;57.650;11.926;2022-10-31T13:16:24;8.33;;;4.50;;
16813;SDS011;8524;57.650;11.926;2022-10-31T13:18:54;6.43;;;4.27;;
16813;SDS011;8524;57.650;11.926;2022-10-31T13:21:29;6.93;;;4.37;;
16813;SDS011;8524;57.650;11.926;2022-10-31T13:24:01;6.47;;;3.83;;
16813;SDS011;8524;57.650;11.926;2022-10-31T13:26:33;7.47;;;4.17;;
16813;SDS011;8524;57.650;11.926;2022-10-31T13:29:04;8.73;;;4.70;;
16813;SDS011;8524;57.650;11.926;2022-10-31T13:31:39;9.03;;;4.33;;
16813;SDS011;8524;57.650;11.926;2022-10-31T13:34:09;6.93;;;4.20;;
16813;SDS011;8524;57.650;11.926;2022-10-31T13:36:45;5.43;;;3.97;;
16813;SDS011;8524;57.650;11.926;2022-10-31T13:39:21;8.00;;;4.70;;
16813;SDS011;8524;57.650;11.926;2022-10-31T13:41:57;6.70;;;4.20;;
16813;SDS011;8524;57.650;11.926;2022-10-31T13:44:29;8.60;;;4.47;;
16813;SDS011;8524;57.650;11.926;2022-10-31T13:47:02;7.00;;;4.23;;
16813;SDS011;8524;57.650;11.926;2022-10-31T13:49:37;7.03;;;5.07;;
16813;SDS011;8524;57.650;11.926;2022-10-31T13:52:10;7.60;;;4.53;;
16813;SDS011;8524;57.650;11.926;2022-10-31T13:54:40;6.83;;;4.80;;
16813;SDS011;8524;57.650;11.926;2022-10-31T13:57:13;7.30;;;4.77;;
16813;SDS011;8524;57.650;11.926;2022-10-31T13:59:46;9.53;;;5.07;;
16813;SDS011;8524;57.650;11.926;2022-10-31T14:02:17;8.37;;;4.80;;
16813;SDS011;8524;57.650;11.926;2022-10-31T14:04:51;5.80;;;4.30;;
16813;SDS011;8524;57.650;11.926;2022-10-31T14:07:23;4.20;;;3.40;;
16813;SDS011;8524;57.650;11.926;2022-10-31T14:09:55;4.43;;;3.90;;
16813;SDS011;8524;57.650;11.926;2022-10-31T14:12:26;3.80;;;3.17;;
16813;SDS011;8524;57.650;11.926;2022-10-31T14:14:57;4.93;;;3.20;;
16813;SDS011;8524;57.650;11.926;2022-10-31T14:17:27;4.77;;;2.53;;
16813;SDS011;8524;57.650;11.926;2022-10-31T14:22:59;2.50;;;2.30;;
16813;SDS011;8524;57.650;11.926;2022-10-31T14:25:37;4.50;;;2.33;;
16813;SDS011;8524;57.650;11.926;2022-10-31T14:28:17;3.37;;;2.20;;
16813;SDS011;8524;57.650;11.926;2022-10-31T14:30:51;2.20;;;2.00;;
16813;SDS011;8524;57.650;11.926;2022-10-31T14:33:19;2.70;;;2.00;;
16813;SDS011;8524;57.650;11.926;2022-10-31T14:35:48;2.30;;;2.10;;
16813;SDS011;8524;57.650;11.926;2022-10-31T14:41:13;3.80;;;2.37;;
16813;SDS011;8524;57.650;11.926;2022-10-31T14:43:56;3.17;;;2.50;;
16813;SDS011;8524;57.650;11.926;2022-10-31T14:46:50;3.63;;;2.70;;
16813;SDS011;8524;57.650;11.926;2022-10-31T14:49:37;2.37;;;2.17;;
16813;SDS011;8524;57.650;11.926;2022-10-31T14:52:30;2.60;;;2.40;;
16813;SDS011;8524;57.650;11.926;2022-10-31T14:54:59;2.60;;;2.20;;
16813;SDS011;8524;57.650;11.926;2022-10-31T14:57:29;3.57;;;2.70;;
16813;SDS011;8524;57.650;11.926;2022-10-31T15:00:00;3.53;;;3.10;;
16813;SDS011;8524;57.650;11.926;2022-10-31T15:02:31;3.50;;;2.93;;